This is the latest recevied weather packets stored in our database for station/object N6SPP. If no packets are shown the sender has not sent any weather packets the latest 10 day(s).
| Time | Temp. | Humidity | Pressure | Rain* | Wind** | Luminosity | Snow |
|---|---|---|---|---|---|---|---|
| 1777502637 | 27.22° C | 34% | 1018 hPa | 0 mm | - | 558 W/m² | - |
| 1777502334 | 26.67° C | 33% | 1018 hPa | 0 mm | - | 569 W/m² | - |
| 1777502030 | 27.22° C | 33% | 1017.9 hPa | 0 mm | - | 581 W/m² | - |
| 1777501727 | 27.22° C | 33% | 1018 hPa | 0 mm | - | 589 W/m² | - |
| 1777501425 | 27.22° C | 34% | 1017.9 hPa | 0 mm | - | 601 W/m² | - |
| 1777501122 | 26.67° C | 32% | 1017.9 hPa | 0 mm | - | 606 W/m² | - |
| 1777500821 | 27.22° C | 33% | 1018 hPa | 0 mm | - | 310 W/m² | - |
| 1777500517 | 27.22° C | 33% | 1018.2 hPa | 0 mm | - | 634 W/m² | - |
| 1777500213 | 27.78° C | 32% | 1018.4 hPa | 0 mm | - | 644 W/m² | - |
| 1777499910 | 26.11° C | 37% | 1018.4 hPa | 0 mm | - | 651 W/m² | - |
| 1777499607 | 26.67° C | 38% | 1018.5 hPa | 0 mm | - | 663 W/m² | - |
| 1777499304 | 27.22° C | 35% | 1018.8 hPa | 0 mm | - | 671 W/m² | - |
| 1777499002 | 26.11° C | 37% | 1018.3 hPa | 0 mm | - | 681 W/m² | - |
| 1777498697 | 26.11° C | 37% | 1018.4 hPa | 0 mm | - | 689 W/m² | - |
| 1777498394 | 26.11° C | 34% | 1018.6 hPa | 0 mm | - | 697 W/m² | - |
| 1777498091 | 26.11° C | 37% | 1018.5 hPa | 0 mm | - | 704 W/m² | - |
| 1777497789 | 26.11° C | 37% | 1018.6 hPa | 0 mm | - | 712 W/m² | - |
| 1777497485 | 26.11° C | 36% | 1018.5 hPa | 0 mm | - | 719 W/m² | - |
| 1777497181 | 26.11° C | 37% | 1018.7 hPa | 0 mm | - | 724 W/m² | - |
| 1777496878 | 26.11° C | 37% | 1018.7 hPa | 0 mm | - | 731 W/m² | - |
| 1777496575 | 25.56° C | 38% | 1018.5 hPa | 0 mm | - | 737 W/m² | - |
| 1777496271 | 25.56° C | 41% | 1018.8 hPa | 0 mm | - | 743 W/m² | - |
| 1777495967 | 25.56° C | 41% | 1018.7 hPa | 0 mm | - | 744 W/m² | - |
| 1777495663 | 25.56° C | 40% | 1018.8 hPa | 0 mm | - | 750 W/m² | - |
| 1777495359 | 25.56° C | 41% | 1018.9 hPa | 0 mm | - | 754 W/m² | - |
* Rain latest hour (hover to see other rain measurements)
** Current wind speed in m/s (hover to see current wind gust speed)